Αναφορές METAR

 

LGKV - Kavala/Chrisoupo, Greece
Απόσταση από το σταθμό: Α 54km
Ενημερώθηκε: 15/12/2018 11:20
Κυρίως Νεφελώδης
Κυρίως Νεφελώδης
 Ανεμος από ΒΑ
Ανεμος: ΒΑ 15 km/h
Θερμοκρασία: 11°C
Σημείο Δρόσου: 8°C
Υγρασία: 82%
Βαρόμετρο: 1017 hPa
Νέφωση: Κυρίως Νεφελώδης
Ορατότητα: 10 km
Λεπτομέρειες νέφωσης: Διάσπαρτα Νέφη 244 m
Κυρίως Νεφελώδης 549 m
Κυρίως Νεφελώδης 2134 m
2018/12/15 09:20 LGKV 150920Z 05008KT 9999 FEW008 BKN018 BKN070 11/08 Q1017
LGTS - Thessaloniki/Mik, Greece
Απόσταση από το σταθμό: ΔΝΔ 96km
Ενημερώθηκε: 15/12/2018 11:20
Drizzle, Ομίχλη, Νεφοσκεπής
Drizzle, Ομίχλη, Νεφοσκεπής
 Ανεμος από calm
Ανεμος: Απνοια
Θερμοκρασία: 9°C
Σημείο Δρόσου: 8°C
Υγρασία: 94%
Βαρόμετρο: 1016 hPa
Summary: Drizzle, Ομίχλη
Νέφωση: Νεφοσκεπής
Ορατότητα: 1 km
Λεπτομέρειες νέφωσης: Κυρίως Νεφελώδης 91 m
Νεφοσκεπής 610 m
2018/12/15 09:20 LGTS 150920Z 00000KT 0600 R16/1400 R34/1900 DZ FG BKN003 OVC020 09/08 Q1016 NOSIG
 
LBPD - Plovdiv, Bulgaria
Απόσταση από το σταθμό: ΒΒΑ 151km
Ενημερώθηκε: 15/12/2018 11:30
Ομίχλη, Νεφοσκεπής
Ομίχλη, Νεφοσκεπής
 Ανεμος από ΔΒΔ
Ανεμος: ΔΒΔ 6 km/h
Θερμοκρασία: 4°C
Σημείο Δρόσου: 4°C
Υγρασία: 100%
Βαρόμετρο: 1018 hPa
Summary: Ομίχλη
Νέφωση: Νεφοσκεπής
Ορατότητα: 1 km
Λεπτομέρειες νέφωσης: Νεφοσκεπής 61 m
2018/12/15 09:30 LBPD 150930Z AUTO 30003KT 270V330 0900 0800SW R30/1200N FG OVC002 04/04 Q1018 TEMPO 0600 FG
LGLM - Limnos Island Ar, Greece
Απόσταση από το σταθμό: ΝΑ 154km
Ενημερώθηκε: 15/12/2018 11:20
Διάσπαρτα Νέφη
Διάσπαρτα Νέφη
 Ανεμος από Ν
Ανεμος: Ν 15 km/h
Θερμοκρασία: 17°C
Σημείο Δρόσου: 14°C
Υγρασία: 83%
Βαρόμετρο: 1017 hPa
Νέφωση: Διάσπαρτα Νέφη
Ορατότητα: 10 km
Λεπτομέρειες νέφωσης: Διάσπαρτα Νέφη 305 m
2018/12/15 09:20 LGLM 150920Z 17008KT 9999 FEW010 17/14 Q1017
 
LGAL - Alexandroupolis, Greece
Απόσταση από το σταθμό: Α 166km
Ενημερώθηκε: 15/12/2018 11:20
Μερικώς Νεφελώδης
Μερικώς Νεφελώδης
 Ανεμος από ΒΑ
Ανεμος: ΒΑ 9 km/h
Θερμοκρασία: 12°C
Σημείο Δρόσου: 10°C
Υγρασία: 88%
Βαρόμετρο: 1018 hPa
Νέφωση: Μερικώς Νεφελώδης
Ορατότητα: 10 km
Λεπτομέρειες νέφωσης: Διάσπαρτα Νέφη 244 m
Μερικώς Νεφελώδης 762 m
2018/12/15 09:20 LGAL 150920Z 05005KT 9999 FEW008 SCT025 12/10 Q1018
LGKZ - Kozani (civ/Army, Greece
Απόσταση από το σταθμό: ΔΝΔ 194km
Ενημερώθηκε: 15/12/2018 10:50
Mist, Νεφοσκεπής
Mist, Νεφοσκεπής
 Ανεμος από calm
Ανεμος: Απνοια
Θερμοκρασία: 5°C
Σημείο Δρόσου: 4°C
Υγρασία: 93%
Βαρόμετρο: 1016 hPa
Summary: Mist
Νέφωση: Νεφοσκεπής
Ορατότητα: 4 km
Λεπτομέρειες νέφωσης: Διάσπαρτα Νέφη 152 m
Μερικώς Νεφελώδης 762 m
Νεφοσκεπής 2134 m
2018/12/15 08:50 LGKZ 150850Z 00000KT 4000 BR FEW005 SCT025 OVC070 05/04 Q1016
 
LGSK - Skiathos Island, Greece
Απόσταση από το σταθμό: Ν 197km
Ενημερώθηκε: 15/12/2018 10:50
Διάσπαρτα Νέφη
Διάσπαρτα Νέφη
 Ανεμος από calm
Ανεμος: Απνοια
Θερμοκρασία: 15°C
Σημείο Δρόσου: 13°C
Υγρασία: 88%
Βαρόμετρο: 1015 hPa
Νέφωση: Διάσπαρτα Νέφη
Ορατότητα: 8 km
Λεπτομέρειες νέφωσης: Διάσπαρτα Νέφη 305 m
2018/12/15 08:50 LGSK 150850Z 00000KT 8000 FEW010 15/13 Q1015
LBSF - Sofia (observato, Bulgaria
Απόσταση από το σταθμό: ΒΒΔ 198km
Ενημερώθηκε: 15/12/2018 11:30
Μερικώς Νεφελώδης
Μερικώς Νεφελώδης
 Ανεμος από ΑΝΑ
Ανεμος: ΑΝΑ 19 km/h
Θερμοκρασία: 5°C
Wind Chill: 1°C
Σημείο Δρόσου: 2°C
Υγρασία: 81%
Βαρόμετρο: 1016 hPa
Νέφωση: Μερικώς Νεφελώδης
Ορατότητα: 10 km
Λεπτομέρειες νέφωσης: Μερικώς Νεφελώδης 488 m
2018/12/15 09:30 LBSF 150930Z 12010KT 9999 SCT016 05/02 Q1016 R99/19//95 NOSIG
 
LGBL - Nea Anchialos, Greece
Απόσταση από το σταθμό: ΝΝΔ 214km
Ενημερώθηκε: 15/12/2018 11:20
Κυρίως Νεφελώδης
Κυρίως Νεφελώδης
 Ανεμος από Δ
Ανεμος: Δ 11 km/h
Θερμοκρασία: 8°C
Wind Chill: 6°C
Σημείο Δρόσου: 7°C
Υγρασία: 93%
Βαρόμετρο: 1016 hPa
Νέφωση: Κυρίως Νεφελώδης
Ορατότητα: 7 km
Λεπτομέρειες νέφωσης: Μερικώς Νεφελώδης 305 m
Κυρίως Νεφελώδης 914 m
2018/12/15 09:20 LGBL 150920Z 28006KT 7000 SCT010 BKN030 08/07 Q1016
LGSY - Skiros, Greece
Απόσταση από το σταθμό: ΝΝΑ 222km
Ενημερώθηκε: 15/12/2018 10:50
Διάσπαρτα Νέφη
Διάσπαρτα Νέφη
 Ανεμος από ΝΝΑ
Ανεμος: ΝΝΑ 30 km/h, Ριπή: 48 km/h
Θερμοκρασία: 17°C
Σημείο Δρόσου: 12°C
Υγρασία: 73%
Βαρόμετρο: 1015 hPa
Νέφωση: Διάσπαρτα Νέφη
Ορατότητα: 10 km
Λεπτομέρειες νέφωσης: Διάσπαρτα Νέφη 457 m
2018/12/15 08:50 LGSY 150850Z 16016G26KT 9999 FEW015 17/12 Q1015 RMK FEW025 SCT080 BKN180 BLU
 
LTBH - Canakkale, Turkey
Απόσταση από το σταθμό: ΑΝΑ 224km
Ενημερώθηκε: 15/12/2018 10:50
Αίθριος
Αίθριος
 Ανεμος από Ν
Ανεμος: Ν 19 km/h
Θερμοκρασία: 17°C
Σημείο Δρόσου: 11°C
Υγρασία: 68%
Βαρόμετρο: 1018 hPa
Summary: Αίθριος
Ορατότητα: greater than 10 km
2018/12/15 08:50 LTBH 150850Z 17010KT 130V200 CAVOK 17/11 Q1018
LWSK - Skopje/Petrovac, Macedonia
Απόσταση από το σταθμό: ΔΒΔ 227km
Ενημερώθηκε: 15/12/2018 11:30
Νεφοσκεπής
Νεφοσκεπής
 Ανεμος από ΔΒΔ
Ανεμος: ΔΒΔ 2 km/h
Θερμοκρασία: 5°C
Σημείο Δρόσου: 3°C
Υγρασία: 87%
Βαρόμετρο: 1015 hPa
Νέφωση: Νεφοσκεπής
Ορατότητα: 6 km
Λεπτομέρειες νέφωσης: Μερικώς Νεφελώδης 366 m
Κυρίως Νεφελώδης 1006 m
Νεφοσκεπής 2134 m
2018/12/15 09:30 LWSK 150930Z 30001KT 6000 SCT012 BKN033 OVC070 05/03 Q1015 NOSIG
 
LWOH - Ohrid, Macedonia
Απόσταση από το σταθμό: Δ 272km
Ενημερώθηκε: 15/12/2018 11:30
Ασθενής βροχή, Νεφοσκεπής
Ασθενής βροχή, Νεφοσκεπής
 Ανεμος από ΒΔ
Ανεμος: ΒΔ 4 km/h
Θερμοκρασία: 5°C
Σημείο Δρόσου: 3°C
Υγρασία: 87%
Βαρόμετρο: 1014 hPa
Summary: Ασθενής βροχή
Νέφωση: Νεφοσκεπής
Ορατότητα: 6 km
Λεπτομέρειες νέφωσης: Μερικώς Νεφελώδης 152 m
Κυρίως Νεφελώδης 457 m
Νεφοσκεπής 1006 m
2018/12/15 09:30 LWOH 150930Z 32002KT 6000 -RA SCT005 BKN015 OVC033 05/03 Q1014
LBGO - Gorna Orechovist, Bulgaria
Απόσταση από το σταθμό: ΒΒΑ 287km
Ενημερώθηκε: 15/12/2018 11:30
Mist, Νεφοσκεπής
Mist, Νεφοσκεπής
 Ανεμος από ΒΔ
Ανεμος: ΒΔ 9 km/h
Θερμοκρασία: 3°C
Wind Chill: 0°C
Σημείο Δρόσου: 3°C
Υγρασία: 100%
Βαρόμετρο: 1018 hPa
Summary: Mist
Νέφωση: Νεφοσκεπής
Ορατότητα: 3 km
Λεπτομέρειες νέφωσης: Νεφοσκεπής 61 m
2018/12/15 09:30 LBGO 150930Z AUTO 31005KT 3100 BR OVC002 03/03 Q1018 NOSIG
 
LTFD - Balikesir Korfez, Turkey
Απόσταση από το σταθμό: ΑΝΑ 300km
Ενημερώθηκε: 15/12/2018 10:50
Μερικώς Νεφελώδης
Μερικώς Νεφελώδης
 Ανεμος από Β
Ανεμος: Β 7 km/h
Θερμοκρασία: 16°C
Σημείο Δρόσου: 11°C
Υγρασία: 72%
Βαρόμετρο: 1019 hPa
Νέφωση: Μερικώς Νεφελώδης
Ορατότητα: 10 km
Λεπτομέρειες νέφωσης: Μερικώς Νεφελώδης 1067 m
Μερικώς Νεφελώδης 6096 m
2018/12/15 08:50 LTFD 150850Z 01004KT 9999 SCT035 SCT200 16/11 Q1019
LGIO - Ioannina, Greece
Απόσταση από το σταθμό: ΔΝΔ 300km
Ενημερώθηκε: 15/12/2018 11:20
Thunderstorm rain, Κυρίως Νεφελώδης
Thunderstorm rain, Κυρίως Νεφελώδης
 Ανεμος από μεταβλητός
Ανεμος: μεταβλητός 0 km/h
Θερμοκρασία: 8°C
Σημείο Δρόσου: 8°C
Υγρασία: 100%
Βαρόμετρο: 1014 hPa
Summary: Thunderstorm Rain
Νέφωση: Κυρίως Νεφελώδης
Ορατότητα: 5 km
Λεπτομέρειες νέφωσης: Διάσπαρτα Νέφη 549 m
Μερικώς Νεφελώδης 610 m
Κυρίως Νεφελώδης 1067 m
2018/12/15 09:20 LGIO 150920Z /////KT 5000 TSRA FEW018CB SCT020TCU BKN035 08/08 Q1014
 
LGMT - Mitilini, Greece
Απόσταση από το σταθμό: ΝΑ 305km
Ενημερώθηκε: 15/12/2018 11:20
Μερικώς Νεφελώδης
Μερικώς Νεφελώδης
 Ανεμος από ΝΝΑ
Ανεμος: ΝΝΑ 19 km/h
Θερμοκρασία: 16°C
Σημείο Δρόσου: 10°C
Υγρασία: 68%
Βαρόμετρο: 1020 hPa
Νέφωση: Μερικώς Νεφελώδης
Ορατότητα: 10 km
Λεπτομέρειες νέφωσης: Μερικώς Νεφελώδης 762 m
2018/12/15 09:20 LGMT 150920Z 15010KT 130V220 9999 SCT025 16/10 Q1020
BKPR - Prishtina, Yugoslavia
Απόσταση από το σταθμό: ΒΔ 306km
Ενημερώθηκε: 15/12/2018 11:30
Κυρίως Νεφελώδης
Κυρίως Νεφελώδης
 Ανεμος από Β
Ανεμος: Β 7 km/h
Θερμοκρασία: 5°C
Wind Chill: 3°C
Σημείο Δρόσου: 2°C
Υγρασία: 81%
Βαρόμετρο: 1012 hPa
Νέφωση: Κυρίως Νεφελώδης
Ορατότητα: 7 km
Λεπτομέρειες νέφωσης: Μερικώς Νεφελώδης 610 m
Κυρίως Νεφελώδης 2134 m
2018/12/15 09:30 BKPR 150930Z 35004KT 7000 SCT020 BKN070 05/02 Q1012 NOSIG RMK 17290095
 
LYNI - Nis, Yugoslavia
Απόσταση από το σταθμό: ΒΒΔ 317km
Ενημερώθηκε: 15/12/2018 11:00
Νεφοσκεπής
Νεφοσκεπής
 Ανεμος από ΒΔ
Ανεμος: ΒΔ 9 km/h
Θερμοκρασία: 4°C
Wind Chill: 2°C
Σημείο Δρόσου: 1°C
Υγρασία: 81%
Βαρόμετρο: 1015 hPa
Νέφωση: Νεφοσκεπής
Ορατότητα: 10 km
Λεπτομέρειες νέφωσης: Μερικώς Νεφελώδης 610 m
Νεφοσκεπής 1128 m
2018/12/15 09:00 LYNI 150900Z 32005KT 290V350 9999 SCT020 OVC037 04/01 Q1015 NOSIG
LGEL - Elefsis (hel-Afb, Greece
Απόσταση από το σταθμό: Ν 319km
Ενημερώθηκε: 15/12/2018 11:20
Μερικώς Νεφελώδης
Μερικώς Νεφελώδης
 Ανεμος από ΝΝΑ
Ανεμος: ΝΝΑ 24 km/h
Θερμοκρασία: 19°C
Σημείο Δρόσου: 12°C
Υγρασία: 64%
Βαρόμετρο: 1016 hPa
Νέφωση: Μερικώς Νεφελώδης
Ορατότητα: 10 km
Λεπτομέρειες νέφωσης: Μερικώς Νεφελώδης 762 m
Μερικώς Νεφελώδης 2134 m
2018/12/15 09:20 LGEL 150920Z 15013KT 9999 SCT025 SCT070 19/12 Q1016


 ♦     ♦     ♦     Ποτέ μη βασίζετε κρίσιμες αποφάσεις σ'αυτές ή οποιεσδήποτε πληροφορίες καιρού από το Internet     ♦     ♦     ♦